Detall de PIREP

Printer-friendly versionPDF version

[2012/03/18 10:14:00]
Flight IATA:CT3304
Pilot Number:042
Company ICAO:CAT
Aircraft Type:B738/F
PAX:0
Departing Airport: LEZG
Destination Airport: GMMN
Alternate Airport:GMME
Online: VATSIM
Route:SEDIL UW100 CJN UL27 NASOS UN869 SLK
Flight Level:F340
No Slew and time accel
No pause
Crash detect
Detect pilot in Cockpit between each 30 and 45 minutes
10:14 Zero fuel Weight: 91660 Lbs, Fuel Weight: 46051 Lbs
10:14 VATSIM:LEZG 181000Z 25019KT 220V280 9999 FEW070 14/M02 Q1023
10:14 VATSIM:GMMN 181000Z 06012KT 9999 FEW016 SCT100 15/09 Q1028 NOSIG
10:14 VOICE CATALONIAN
10:19 Parking Brakes off
10:23 Take-off
10:23 Take off Weight: 137142 Lbs
10:23 Wind: 263º @ 020 Knots Heading: 296º
10:23 POS N41º 39´ 45´´ W001º 01´ 29´´
10:23 Gear Up: 167 Knots
10:23 Flaps:5 at 167 Knots
10:23 Flaps:4 at 168 Knots
10:23 Flaps:3 at 155 Knots
10:24 Flaps:2 at 172 Knots
10:25 Flaps:1 at 224 Knots
10:25 Flaps:0 at 247 Knots
10:38 Wind:267º@059 Knots Heading: 226º Ground Speed: 413 Knots Altitude 32644 ft
10:39 TOC
10:39 Fuel Weight: 42135 Lb
10:53 Wind:267º@051 Knots Heading: 206º Ground Speed: 430 Knots Altitude 34353 ft
11:08 Wind:255º@040 Knots Heading: 207º Ground Speed: 430 Knots Altitude 34376 ft
11:23 Wind:252º@039 Knots Heading: 215º Ground Speed: 425 Knots Altitude 34393 ft
11:38 Wind:253º@032 Knots Heading: 218º Ground Speed: 428 Knots Altitude 34327 ft
11:38 TOD
11:38 Fuel Weight: 36528 Lb
11:50 Flaps:1 at 228 Knots
11:53 Wind:248º@020 Knots Heading: 208º Ground Speed: 243 Knots Altitude 10577 ft
11:56 Flaps:2 at 216 Knots
11:58 Flaps:3 at 175 Knots
12:00 Flaps:4 at 170 Knots
12:01 Gear Down: 173 Knots
12:01 Flaps:5 at 173 Knots
12:01 Flaps:6 at 173 Knots
12:01 Flaps:7 at 170 Knots
12:02 Flaps:8 at 160 Knots
12:05 TouchDown:Rate -125 ft/min Speed: 122 Knots
12:05 VATSIM:GMMN 181130Z 03014KT 350V050 9999 FEW016 SCT100 18/08 Q1027 NOSIG
12:05 Land
12:05 Wind:045º@013 Knots
12:05 Heading: 342º
12:05 Flight Duration: 01:42
12:05 Landing Weight: 126751 Lbs
12:05 POS N33º 21´ 58´´ W007º 35´ 14´´
12:07 Parking brakes on
12:07 Block to Block Duration: 01:48
12:07 Final Fuel: 34905 Lbls
12:07 Spent Fuel: 11146 Lbls
12:07 Flight Length: 630 NM
12:07 TOD Land Length: 120 NM

Exportar CSV

Powered by Drupal - Modified by Danger4k